Time;durP1;ratioP1;P1;durP2;ratioP2;P2;SDS_P1;SDS_P2;PMS_P1;PMS_P2;Temp;Humidity;BMP_temperature;BMP_pressure;BME280_temperature;BME280_humidity;BME280_pressure;Samples;Min_cycle;Max_cycle;Signal;HPM_P1;HPM_P2
2021/01/30 00:00:19;;;;;;;13.43;6.90;;;;;;;-3.95;73.56;97805.70;1721075;83;21343;-61
2021/01/30 00:02:47;;;;;;;12.00;6.75;;;;;;;-3.94;73.31;97804.17;1705235;83;21596;-60
2021/01/30 00:05:14;;;;;;;13.10;7.10;;;;;;;-3.94;73.21;97815.31;1721075;83;21581;-61
2021/01/30 00:07:41;;;;;;;11.33;7.08;;;;;;;-3.92;73.12;97818.55;1719095;83;21612;-61
2021/01/30 00:10:10;;;;;;;10.70;5.97;;;;;;;-3.95;73.07;97822.47;1722457;83;21314;-60
2021/01/30 00:12:38;;;;;;;11.63;6.62;;;;;;;-3.94;72.98;97827.27;1699114;83;21236;-61
2021/01/30 00:15:11;;;;;;;12.50;6.97;;;;;;;-3.97;72.89;97832.53;1718697;83;21753;-60
2021/01/30 00:17:38;;;;;;;11.50;6.90;;;;;;;-4.02;72.98;97833.20;1721975;83;21184;-61
2021/01/30 00:20:07;;;;;;;11.10;6.67;;;;;;;-4.07;72.95;97834.38;1714770;83;21616;-61
2021/01/30 00:22:35;;;;;;;12.33;6.42;;;;;;;-4.09;72.89;97835.13;1704637;83;21169;-59
2021/01/30 00:25:03;;;;;;;10.45;6.85;;;;;;;-4.13;72.67;97839.78;1722846;83;21145;-61
2021/01/30 00:27:30;;;;;;;14.93;7.37;;;;;;;-4.19;72.62;97839.36;1706122;83;21165;-60
2021/01/30 00:29:58;;;;;;;11.50;6.83;;;;;;;-4.24;72.57;97843.19;1716566;83;21584;-61
2021/01/30 00:32:25;;;;;;;12.05;6.75;;;;;;;-4.30;72.36;97850.73;1711817;83;21586;-61
2021/01/30 00:34:53;;;;;;;10.43;6.70;;;;;;;-4.44;72.71;97850.59;1722909;83;21185;-61
2021/01/30 00:37:23;;;;;;;11.57;6.83;;;;;;;-4.52;72.68;97841.89;1701069;83;21648;-60
2021/01/30 00:39:52;;;;;;;11.93;7.12;;;;;;;-4.63;72.81;97841.29;1703519;82;21754;-61
2021/01/30 00:42:22;;;;;;;11.80;6.70;;;;;;;-4.71;72.70;97838.13;1697925;83;21648;-60
2021/01/30 00:44:52;;;;;;;11.93;6.65;;;;;;;-4.79;72.90;97847.70;1708430;83;21141;-61
2021/01/30 00:47:20;;;;;;;11.93;6.70;;;;;;;-4.90;73.36;97849.23;1717197;83;21164;-61
2021/01/30 00:49:48;;;;;;;11.90;6.53;;;;;;;-5.02;73.43;97849.14;1710710;83;21190;-61
2021/01/30 00:52:20;;;;;;;10.10;6.33;;;;;;;-5.10;73.58;97848.62;1712876;83;21200;-61
2021/01/30 00:54:52;;;;;;;11.60;6.25;;;;;;;-5.15;73.71;97853.25;1699926;83;21191;-60
2021/01/30 00:57:20;;;;;;;12.35;7.25;;;;;;;-5.23;73.87;97846.06;1657825;86;21346;-60
2021/01/30 00:59:48;;;;;;;11.08;6.85;;;;;;;-5.29;74.03;97849.59;1696444;83;21181;-61
2021/01/30 01:02:15;;;;;;;11.65;6.72;;;;;;;-5.34;74.20;97865.33;1695946;83;21620;-61
2021/01/30 01:04:45;;;;;;;10.88;6.53;;;;;;;-5.41;74.21;97865.38;1716490;83;21169;-60
2021/01/30 01:07:13;;;;;;;10.82;7.12;;;;;;;-5.46;74.34;97862.58;1658039;86;21145;-61
2021/01/30 01:09:42;;;;;;;12.82;7.42;;;;;;;-5.48;74.23;97869.92;1718753;83;21226;-61
2021/01/30 01:12:10;;;;;;;11.68;6.20;;;;;;;-5.57;74.46;97872.04;1713022;83;21182;-60
2021/01/30 01:14:37;;;;;;;10.65;6.17;;;;;;;-5.63;74.71;97870.73;1715648;83;21157;-61
2021/01/30 01:17:05;;;;;;;13.00;6.95;;;;;;;-5.65;74.72;97872.29;1717153;83;21132;-60
2021/01/30 01:19:33;;;;;;;10.98;6.10;;;;;;;-5.74;74.91;97865.60;1710943;83;21627;-60
2021/01/30 01:22:00;;;;;;;12.63;7.30;;;;;;;-5.76;75.09;97884.08;1656423;86;21133;-60
2021/01/30 01:24:28;;;;;;;12.70;7.28;;;;;;;-5.79;75.16;97881.34;1714460;83;21298;-60
2021/01/30 01:26:55;;;;;;;12.78;6.92;;;;;;;-5.93;75.07;97867.09;1699198;83;21184;-60
2021/01/30 01:29:24;;;;;;;12.37;6.55;;;;;;;-5.85;75.10;97879.55;1695999;83;21165;-60
2021/01/30 01:31:53;;;;;;;12.53;7.12;;;;;;;-5.89;75.16;97879.70;1653451;86;21329;-60
2021/01/30 01:34:24;;;;;;;13.35;7.92;;;;;;;-5.92;75.36;97876.16;1683826;84;21276;-61
2021/01/30 01:37:04;;;;;;;9.25;6.20;;;;;;;-5.97;75.39;97881.78;1636177;86;21197;-61
2021/01/30 01:39:33;;;;;;;12.90;7.00;;;;;;;-6.00;75.51;97878.23;1689807;83;21185;-61
2021/01/30 01:42:14;;;;;;;11.90;7.00;;;;;;;-6.01;75.48;97878.73;1694526;84;21181;-60
2021/01/30 01:44:43;;;;;;;11.30;6.92;;;;;;;-6.04;75.36;97877.84;1635551;88;21202;-60
2021/01/30 01:47:29;;;;;;;11.20;6.65;;;;;;;-6.07;75.64;97880.41;1686855;84;21559;-60
2021/01/30 01:49:59;;;;;;;13.68;7.45;;;;;;;-6.13;75.58;97881.77;1695456;84;21481;-60
2021/01/30 01:52:33;;;;;;;12.33;7.10;;;;;;;-6.17;75.63;97886.67;1689049;84;21593;-60
2021/01/30 01:55:14;;;;;;;12.25;7.42;;;;;;;-6.23;75.77;97877.41;1709003;84;21696;-60
2021/01/30 01:57:47;;;;;;;10.55;5.92;;;;;;;-6.21;75.58;97871.41;1686616;84;21340;-61
2021/01/30 02:00:16;;;;;;;13.20;7.45;;;;;;;-6.21;75.43;97864.28;1689227;84;21133;-61
2021/01/30 02:02:47;;;;;;;13.25;7.90;;;;;;;-6.26;75.28;97868.05;1681267;84;21209;-60
2021/01/30 02:07:57;;;;;;;12.18;6.55;;;;;;;-6.26;75.11;97861.44;1787844;77;23388;-61
2021/01/30 02:10:28;;;;;;;10.93;5.95;;;;;;;-6.36;75.11;97866.37;1792316;78;21145;-61
2021/01/30 02:13:02;;;;;;;12.18;7.20;;;;;;;-6.41;74.95;97860.09;1794263;80;21164;-61
2021/01/30 02:15:29;;;;;;;12.40;7.50;;;;;;;-6.50;75.04;97861.33;1821273;78;21622;-61
2021/01/30 02:18:43;;;;;;;13.05;7.60;;;;;;;-6.55;75.26;97857.97;1803081;78;21124;-61
2021/01/30 02:21:38;;;;;;;12.33;7.55;;;;;;;-6.53;75.36;97849.84;1774543;78;21172;-61
2021/01/30 02:24:54;;;;;;;13.25;7.47;;;;;;;-6.56;75.46;97857.70;1799263;78;21595;-60
2021/01/30 02:28:08;;;;;;;15.98;7.70;;;;;;;-6.64;75.24;97861.38;1816995;78;21144;-60
2021/01/30 02:31:04;;;;;;;14.05;8.38;;;;;;;-6.72;75.39;97861.59;1797954;78;21149;-60
2021/01/30 02:34:12;;;;;;;14.35;8.00;;;;;;;-6.81;75.36;97862.85;1799535;80;21165;-61
2021/01/30 02:36:56;;;;;;;16.60;8.35;;;;;;;-6.84;75.58;97854.01;1801181;78;21164;-61
2021/01/30 02:39:32;;;;;;;14.60;8.05;;;;;;;-6.86;75.64;97844.13;1782952;78;21189;-61
2021/01/30 02:42:13;;;;;;;12.93;7.35;;;;;;;-6.91;75.63;97843.13;1819036;78;21175;-61
2021/01/30 02:45:02;;;;;;;14.78;7.20;;;;;;;-6.97;75.56;97842.11;1817691;78;21282;-61
2021/01/30 02:47:31;;;;;;;13.13;7.55;;;;;;;-6.94;75.66;97847.52;1808085;78;21295;-59
2021/01/30 02:50:07;;;;;;;13.98;7.92;;;;;;;-6.91;75.55;97845.27;1793171;78;21584;-60
2021/01/30 02:52:35;;;;;;;17.35;9.43;;;;;;;-6.90;75.38;97844.73;1796171;78;21150;-59
2021/01/30 02:55:06;;;;;;;15.05;9.03;;;;;;;-6.95;75.29;97849.34;1801354;78;21178;-59
2021/01/30 02:57:33;;;;;;;16.80;9.40;;;;;;;-7.03;75.32;97852.20;1794797;80;21174;-60
2021/01/30 03:00:00;;;;;;;14.35;8.65;;;;;;;-7.13;75.30;97851.30;1795600;78;21583;-60
2021/01/30 03:02:29;;;;;;;15.48;9.10;;;;;;;-7.18;75.29;97842.34;1769741;78;21576;-60
2021/01/30 03:04:58;;;;;;;16.62;8.60;;;;;;;-7.19;75.50;97842.85;1799737;80;21196;-60
2021/01/30 03:08:00;;;;;;;20.02;10.60;;;;;;;-7.19;75.46;97840.20;1787380;78;21734;-60
2021/01/30 03:11:02;;;;;;;21.40;10.65;;;;;;;-7.18;75.31;97838.38;1801711;78;21147;-60
2021/01/30 03:13:44;;;;;;;17.05;9.83;;;;;;;-7.25;75.21;97838.89;1793093;78;21153;-60
2021/01/30 03:16:14;;;;;;;15.70;9.70;;;;;;;-7.32;75.26;97835.45;1792429;78;21180;-60
2021/01/30 03:18:59;;;;;;;17.87;9.78;;;;;;;-7.39;75.37;97838.59;1776078;79;21194;-60
2021/01/30 03:21:27;;;;;;;14.50;8.55;;;;;;;-7.44;75.67;97837.91;1794180;79;21180;-60
2021/01/30 03:23:54;;;;;;;17.12;9.08;;;;;;;-7.45;75.84;97834.14;1793306;80;21174;-61
2021/01/30 03:26:22;;;;;;;15.63;8.65;;;;;;;-7.41;75.86;97834.86;1797902;79;21168;-60
2021/01/30 03:28:50;;;;;;;15.08;8.68;;;;;;;-7.39;75.78;97828.84;1802681;79;21148;-60
2021/01/30 03:31:17;;;;;;;17.52;10.78;;;;;;;-7.40;75.83;97835.67;1793870;80;21172;-59
2021/01/30 03:33:44;;;;;;;18.98;10.55;;;;;;;-7.46;75.76;97827.22;1803936;79;21149;-60
2021/01/30 03:36:12;;;;;;;15.25;8.13;;;;;;;-7.48;75.95;97829.27;1807829;79;21192;-61
2021/01/30 03:38:40;;;;;;;16.30;8.50;;;;;;;-7.51;75.86;97820.42;1796489;79;21319;-60
2021/01/30 03:41:07;;;;;;;15.45;8.48;;;;;;;-7.57;75.96;97821.53;1804145;79;21145;-60
2021/01/30 03:43:34;;;;;;;15.63;8.28;;;;;;;-7.65;76.14;97821.72;1817328;78;21573;-60
2021/01/30 03:46:02;;;;;;;15.30;8.18;;;;;;;-7.69;76.31;97828.95;1793692;79;21310;-60
2021/01/30 03:48:29;;;;;;;19.50;9.00;;;;;;;-7.67;76.37;97818.48;1793595;79;21195;-60
2021/01/30 03:50:57;;;;;;;15.15;8.85;;;;;;;-7.69;76.39;97816.56;1801429;79;21144;-60
2021/01/30 03:53:24;;;;;;;16.93;8.73;;;;;;;-7.71;76.60;97819.08;1797192;79;21177;-61
2021/01/30 03:55:52;;;;;;;16.25;8.93;;;;;;;-7.69;76.74;97827.13;1751411;82;21520;-61
2021/01/30 03:58:19;;;;;;;14.43;8.53;;;;;;;-7.62;76.80;97823.98;1749020;82;21198;-61
2021/01/30 04:00:46;;;;;;;14.60;8.15;;;;;;;-7.51;76.83;97817.78;1742489;81;21677;-61
2021/01/30 04:03:14;;;;;;;14.07;9.03;;;;;;;-7.44;76.49;97822.55;1758461;80;21575;-60
2021/01/30 04:05:42;;;;;;;14.73;8.38;;;;;;;-7.40;76.61;97823.78;1738925;81;21262;-60
2021/01/30 04:08:10;;;;;;;14.40;8.50;;;;;;;-7.37;76.37;97814.11;1738530;82;21218;-60
2021/01/30 04:10:37;;;;;;;16.80;8.85;;;;;;;-7.35;76.31;97804.13;1737954;81;21331;-60
2021/01/30 04:13:08;;;;;;;14.98;8.30;;;;;;;-7.26;76.46;97812.17;1746774;81;21188;-60
2021/01/30 04:15:39;;;;;;;18.07;8.38;;;;;;;-7.21;76.21;97806.56;1736307;81;21643;-60
2021/01/30 04:18:07;;;;;;;16.45;8.95;;;;;;;-7.24;75.57;97806.16;1741680;82;21209;-60
2021/01/30 04:20:35;;;;;;;14.98;8.60;;;;;;;-7.38;75.74;97816.44;1739528;82;21262;-60
2021/01/30 04:23:04;;;;;;;14.65;8.43;;;;;;;-7.40;75.93;97827.20;1741169;82;21181;-61
2021/01/30 04:25:31;;;;;;;14.68;8.93;;;;;;;-7.42;75.79;97823.97;1712723;82;21165;-60
2021/01/30 04:27:59;;;;;;;16.17;9.13;;;;;;;-7.43;75.51;97824.98;1751420;82;21209;-60
2021/01/30 04:30:28;;;;;;;15.72;8.63;;;;;;;-7.46;75.62;97834.64;1737357;81;21454;-60
2021/01/30 04:32:58;;;;;;;14.58;8.15;;;;;;;-7.51;75.51;97833.13;1709093;82;21178;-60
2021/01/30 04:35:31;;;;;;;15.60;8.80;;;;;;;-7.53;75.41;97840.44;1724810;83;21188;-60
2021/01/30 04:37:58;;;;;;;13.93;8.13;;;;;;;-7.58;75.30;97829.14;1749580;82;21157;-60
2021/01/30 04:40:38;;;;;;;17.12;9.55;;;;;;;-7.63;75.34;97832.92;1736364;81;21311;-60
2021/01/30 04:43:33;;;;;;;14.90;8.60;;;;;;;-7.63;75.25;97836.06;1714664;83;21318;-60
2021/01/30 04:46:12;;;;;;;17.25;8.58;;;;;;;-7.67;75.38;97833.02;1721634;83;21204;-60
2021/01/30 04:48:56;;;;;;;15.85;8.83;;;;;;;-7.70;75.52;97835.25;1714971;82;21537;-60
2021/01/30 04:51:32;;;;;;;13.32;8.20;;;;;;;-7.71;75.69;97830.47;1741551;82;21271;-60
2021/01/30 04:54:05;;;;;;;12.40;7.78;;;;;;;-7.64;76.02;97829.96;1735065;82;21175;-60
2021/01/30 04:56:54;;;;;;;12.95;7.60;;;;;;;-7.61;75.86;97829.55;1738682;81;21144;-60
2021/01/30 05:00:10;;;;;;;14.07;8.10;;;;;;;-7.58;75.90;97831.78;1706968;82;21744;-59
2021/01/30 05:03:17;;;;;;;14.95;8.78;;;;;;;-7.59;75.78;97826.72;1751453;82;21213;-60
2021/01/30 05:05:47;;;;;;;32.48;13.80;;;;;;;-7.65;75.95;97827.00;1722598;82;21573;-60
2021/01/30 05:08:42;;;;;;;22.15;11.00;;;;;;;-7.70;75.65;97820.72;1704472;82;21235;-60
2021/01/30 05:11:14;;;;;;;36.00;14.63;;;;;;;-7.73;75.74;97817.98;1738765;81;21153;-61
2021/01/30 05:14:05;;;;;;;28.75;13.25;;;;;;;-7.70;75.91;97820.21;1739113;81;21184;-60
2021/01/30 05:16:36;;;;;;;19.60;9.98;;;;;;;-7.61;76.05;97822.13;1740779;81;21153;-60
2021/01/30 05:19:10;;;;;;;16.40;9.90;;;;;;;-7.59;75.94;97824.90;1746352;81;21650;-60
2021/01/30 05:21:52;;;;;;;18.55;9.05;;;;;;;-7.72;75.91;97806.37;1749865;81;21161;-60
2021/01/30 05:24:20;;;;;;;13.58;8.13;;;;;;;-7.53;75.97;97831.69;1738684;81;21324;-61
2021/01/30 05:27:17;;;;;;;13.38;8.05;;;;;;;-7.54;75.74;97829.55;1738986;81;21259;-59
2021/01/30 05:30:10;;;;;;;14.55;8.85;;;;;;;-7.57;75.85;97835.25;1786682;79;23372;-61
2021/01/30 05:32:48;;;;;;;;;;;;;;;-7.66;75.80;97829.87;1757245;80;21172;-61
2021/01/30 05:35:27;;;;;;;15.60;9.10;;;;;;;-7.76;75.83;97832.10;1754801;82;20165;-61
2021/01/30 05:38:02;;;;;;;18.62;8.88;;;;;;;-7.86;76.18;97834.30;1756649;80;21278;-61
2021/01/30 05:40:50;;;;;;;15.55;8.78;;;;;;;-7.89;76.61;97828.92;1848382;77;22282;-60
2021/01/30 05:43:48;;;;;;;17.20;9.60;;;;;;;-7.97;76.95;97834.91;1818043;78;21332;-61
2021/01/30 05:46:28;;;;;;;19.15;10.28;;;;;;;-7.99;77.22;97843.02;1788578;80;21598;-60
2021/01/30 05:49:00;;;;;;;22.48;11.78;;;;;;;-7.98;77.11;97846.48;1793367;78;21292;-61
2021/01/30 05:51:50;;;;;;;21.37;12.50;;;;;;;-8.02;77.33;97850.03;1786058;78;21157;-61
2021/01/30 05:54:18;;;;;;;21.87;10.85;;;;;;;-8.04;77.68;97856.00;1797528;78;21266;-61
2021/01/30 05:56:45;;;;;;;20.43;12.43;;;;;;;-8.03;77.79;97852.36;1759496;78;21284;-61
2021/01/30 05:59:24;;;;;;;20.90;11.80;;;;;;;-8.00;77.77;97855.91;1807029;78;21121;-61
2021/01/30 06:02:17;;;;;;;22.22;12.55;;;;;;;-7.96;77.63;97854.50;1814995;78;21132;-60
2021/01/30 06:04:44;;;;;;;25.88;14.25;;;;;;;-7.96;77.86;97857.64;1827021;78;21597;-61
2021/01/30 06:07:37;;;;;;;28.35;15.55;;;;;;;-7.96;78.18;97858.47;1789451;78;21148;-62
2021/01/30 06:10:29;;;;;;;26.20;15.48;;;;;;;-7.93;78.21;97858.06;1765743;78;21161;-60
2021/01/30 06:13:23;;;;;;;33.25;18.17;;;;;;;-7.90;78.19;97851.05;1780341;78;21364;-60
2021/01/30 06:15:59;;;;;;;36.38;18.40;;;;;;;-7.99;78.11;97846.17;1798003;78;21183;-60
2021/01/30 06:18:38;;;;;;;36.20;20.88;;;;;;;-7.88;78.09;97858.28;1796879;78;21322;-60
2021/01/30 06:21:11;;;;;;;39.63;21.35;;;;;;;-7.86;78.04;97865.99;1763314;80;21076;-60
2021/01/30 06:23:39;;;;;;;42.10;21.30;;;;;;;-7.90;78.29;97862.94;1768396;78;21305;-60
2021/01/30 06:26:17;;;;;;;37.67;21.15;;;;;;;-7.83;78.22;97866.41;1797870;78;21178;-60
2021/01/30 06:28:58;;;;;;;38.42;20.37;;;;;;;-7.75;78.14;97863.58;1827206;78;21311;-60
2021/01/30 06:31:39;;;;;;;42.00;23.22;;;;;;;-7.69;78.12;97856.20;1826178;78;21140;-59
2021/01/30 06:34:32;;;;;;;45.08;23.38;;;;;;;-7.63;78.09;97855.38;1802905;78;21557;-60
2021/01/30 06:36:59;;;;;;;43.45;22.67;;;;;;;-7.54;78.09;97849.91;1798709;78;21286;-60
2021/01/30 06:39:33;;;;;;;42.83;22.25;;;;;;;-7.46;77.98;97853.14;1763286;81;21184;-60
2021/01/30 06:42:14;;;;;;;40.40;22.95;;;;;;;-7.36;77.91;97852.72;1776705;78;21132;-60
2021/01/30 06:44:42;;;;;;;48.17;24.70;;;;;;;-7.25;77.85;97854.76;1781471;80;21135;-60
2021/01/30 06:47:16;;;;;;;43.98;24.55;;;;;;;-7.13;77.63;97851.81;1780771;80;21134;-61
2021/01/30 06:49:51;;;;;;;42.53;23.57;;;;;;;-7.06;77.44;97847.33;1772607;78;21732;-60
2021/01/30 06:52:30;;;;;;;43.40;25.68;;;;;;;-6.98;77.24;97835.72;1781402;78;21185;-60
2021/01/30 06:55:09;;;;;;;44.85;25.72;;;;;;;-6.87;77.13;97830.59;1784891;78;21146;-60
2021/01/30 06:57:40;;;;;;;48.23;27.32;;;;;;;-6.76;77.22;97827.81;1765755;78;21142;-60
2021/01/30 07:00:20;;;;;;;44.73;28.60;;;;;;;-6.56;77.27;97828.58;1811390;78;21323;-60
2021/01/30 07:02:50;;;;;;;51.60;26.75;;;;;;;-6.35;77.06;97822.17;1811733;78;21148;-61
2021/01/30 07:05:54;;;;;;;56.35;29.70;;;;;;;-6.20;76.63;97816.89;1792942;78;21160;-60
2021/01/30 07:08:44;;;;;;;48.30;26.97;;;;;;;-6.08;76.41;97819.17;1783742;79;21196;-60
2021/01/30 07:11:43;;;;;;;38.23;22.13;;;;;;;-5.93;76.40;97826.84;1770658;78;21117;-61
2021/01/30 07:14:37;;;;;;;40.05;22.58;;;;;;;-5.74;76.28;97835.13;1805437;78;21194;-60
2021/01/30 07:17:48;;;;;;;42.15;22.35;;;;;;;-5.59;75.75;97837.47;1787218;80;21206;-60
2021/01/30 07:20:28;;;;;;;42.25;23.38;;;;;;;-5.45;75.23;97832.88;1788848;80;21180;-60
2021/01/30 07:23:05;;;;;;;38.40;21.97;;;;;;;-5.37;74.97;97830.78;1780442;78;21696;-60
2021/01/30 07:25:53;;;;;;;39.50;23.02;;;;;;;-5.34;74.40;97834.83;1765949;80;21348;-60
2021/01/30 07:28:24;;;;;;;39.65;22.87;;;;;;;-5.34;74.10;97834.32;1785066;78;21161;-60
2021/01/30 07:31:16;;;;;;;32.60;18.35;;;;;;;-5.29;73.87;97821.23;1775409;78;21132;-60
2021/01/30 07:33:58;;;;;;;43.08;22.15;;;;;;;-5.26;73.22;97825.28;1784965;78;21161;-61
2021/01/30 07:36:52;;;;;;;37.70;21.55;;;;;;;-5.24;73.43;97818.72;1803348;78;21569;-61
2021/01/30 07:39:31;;;;;;;35.20;19.48;;;;;;;-5.19;73.62;97819.41;1795757;78;21177;-62
2021/01/30 07:42:08;;;;;;;33.85;18.40;;;;;;;-5.09;73.39;97811.75;1766549;79;21107;-62
2021/01/30 07:44:52;;;;;;;30.08;18.48;;;;;;;-5.02;73.36;97817.81;1784248;79;21285;-63
2021/01/30 07:48:04;;;;;;;29.02;18.15;;;;;;;-4.93;73.05;97823.14;1781164;80;21514;-62
2021/01/30 07:50:35;;;;;;;45.67;22.42;;;;;;;-4.93;72.63;97826.31;1777651;79;21721;-63
2021/01/30 07:53:11;;;;;;;41.42;21.60;;;;;;;-5.03;72.75;97830.26;1811198;79;21198;-63
2021/01/30 07:56:04;;;;;;;33.50;18.87;;;;;;;-5.05;72.86;97839.48;1780806;79;21165;-63
2021/01/30 07:58:48;;;;;;;38.13;21.00;;;;;;;-5.11;72.85;97841.69;1788631;80;21647;-63
2021/01/30 08:01:38;;;;;;;41.92;22.75;;;;;;;-5.14;73.03;97846.92;1788653;80;21178;-62
2021/01/30 08:04:20;;;;;;;57.75;30.68;;;;;;;-5.16;73.02;97840.19;1789741;79;21173;-62
2021/01/30 08:07:14;;;;;;;63.50;34.08;;;;;;;-5.18;73.37;97840.42;1780526;79;21152;-62
2021/01/30 08:10:21;;;;;;;65.55;33.88;;;;;;;-5.19;73.23;97834.81;1814777;78;21158;-62
2021/01/30 08:13:11;;;;;;;60.05;34.23;;;;;;;-5.14;73.33;97839.47;1764803;79;21155;-60
2021/01/30 08:16:02;;;;;;;68.67;36.80;;;;;;;-5.13;73.51;97831.78;1747955;79;21659;-62
2021/01/30 08:18:39;;;;;;;77.35;39.58;;;;;;;-5.06;73.57;97828.56;1762113;80;21154;-62
2021/01/30 08:21:42;;;;;;;76.97;41.13;;;;;;;-5.00;73.71;97823.72;1766900;80;21150;-62
2021/01/30 08:24:30;;;;;;;72.75;38.80;;;;;;;-4.90;73.64;97817.39;1790672;79;21166;-63
2021/01/30 08:27:09;;;;;;;69.53;39.40;;;;;;;-4.76;73.52;97814.89;1762082;80;21300;-63
2021/01/30 08:29:41;;;;;;;65.03;38.00;;;;;;;-4.60;73.37;97822.77;1757591;81;21174;-63
2021/01/30 08:32:29;;;;;;;71.42;41.23;;;;;;;-4.47;72.99;97826.63;1777222;79;21146;-62
2021/01/30 08:35:19;;;;;;;75.40;42.67;;;;;;;-4.39;72.78;97826.84;1757727;81;21145;-63
2021/01/30 08:38:07;;;;;;;97.75;56.37;;;;;;;-4.26;72.58;97829.33;1745279;79;21156;-62
2021/01/30 08:40:53;;;;;;;;;;;;;;;-4.11;72.30;97825.77;1823422;78;21117;-63
2021/01/30 08:43:46;;;;;;;116.93;56.10;;;;;;;-3.94;72.10;97820.12;1780965;79;20203;-63
2021/01/30 08:46:33;;;;;;;94.37;49.93;;;;;;;-3.81;71.99;97816.45;1815396;79;21200;-63
2021/01/30 08:49:19;;;;;;;161.45;84.35;;;;;;;-3.73;71.50;97815.62;1781307;80;21161;-63
2021/01/30 08:52:08;;;;;;;92.27;54.33;;;;;;;-3.64;71.51;97818.23;1781151;80;21142;-63
2021/01/30 08:54:42;;;;;;;99.05;53.13;;;;;;;-3.62;70.94;97820.16;1692048;83;21349;-63
2021/01/30 08:57:36;;;;;;;76.70;42.00;;;;;;;-3.59;71.29;97818.88;1786993;79;23600;-58
2021/01/30 09:00:09;;;;;;;77.40;40.95;;;;;;;-3.72;71.36;97825.73;1775210;81;21195;-60
2021/01/30 09:02:42;;;;;;;90.65;47.30;;;;;;;-3.78;71.83;97822.13;1769384;80;21291;-60
2021/01/30 09:05:26;;;;;;;102.22;52.95;;;;;;;-3.78;72.11;97830.09;1748548;81;21232;-60
2021/01/30 09:07:56;;;;;;;87.78;49.15;;;;;;;-3.82;72.43;97828.92;1746524;81;21156;-61
2021/01/30 09:10:34;;;;;;;94.47;51.15;;;;;;;-3.81;72.79;97825.75;1753392;81;21086;-60
2021/01/30 09:13:07;;;;;;;74.10;42.27;;;;;;;-3.76;73.02;97821.91;1763364;81;21505;-60
2021/01/30 09:15:46;;;;;;;79.50;44.98;;;;;;;-3.68;73.19;97812.25;1763936;81;21216;-61
2021/01/30 09:18:31;;;;;;;95.70;52.90;;;;;;;-3.68;73.36;97809.59;1774157;81;21299;-60
2021/01/30 09:21:25;;;;;;;67.62;38.40;;;;;;;-3.70;73.66;97808.51;1771982;80;21145;-60
2021/01/30 09:24:20;;;;;;;72.37;39.60;;;;;;;-3.77;74.38;97797.16;1766567;81;21157;-60
2021/01/30 09:27:11;;;;;;;56.63;32.45;;;;;;;-3.74;74.68;97787.91;1764122;80;21309;-60
2021/01/30 09:29:42;;;;;;;66.25;36.60;;;;;;;-3.72;75.24;97784.52;1745516;82;21203;-59
2021/01/30 09:32:11;;;;;;;59.15;32.85;;;;;;;-3.64;75.48;97781.52;1765867;81;21667;-60
2021/01/30 09:34:50;;;;;;;46.60;27.55;;;;;;;-3.56;75.52;97782.52;1741493;81;21161;-58
2021/01/30 09:37:38;;;;;;;49.40;28.45;;;;;;;-3.52;75.57;97779.70;1768723;81;21172;-58
2021/01/30 09:40:25;;;;;;;46.20;29.65;;;;;;;-3.54;75.85;97770.60;1763297;81;21136;-59
2021/01/30 09:43:02;;;;;;;103.25;46.37;;;;;;;-3.51;76.04;97775.45;1763195;80;21117;-60
2021/01/30 09:45:29;;;;;;;146.45;65.75;;;;;;;-3.47;76.12;97766.50;1759150;81;21604;-59
2021/01/30 09:47:57;;;;;;;110.80;51.80;;;;;;;-3.41;76.07;97764.78;1758818;81;21173;-60
2021/01/30 09:50:31;;;;;;;72.20;35.83;;;;;;;-3.32;75.92;97771.38;1773948;80;21174;-60
2021/01/30 09:53:09;;;;;;;83.52;42.40;;;;;;;-3.33;75.70;97755.92;1774384;80;21125;-60
2021/01/30 09:55:37;;;;;;;127.58;59.13;;;;;;;-3.30;75.69;97760.00;1766986;81;21337;-63
2021/01/30 09:58:14;;;;;;;51.98;29.42;;;;;;;-3.28;75.75;97753.91;1759053;81;21676;-60
2021/01/30 10:00:43;;;;;;;49.03;28.17;;;;;;;-3.30;75.73;97754.16;1753714;81;21152;-60
2021/01/30 10:03:21;;;;;;;68.47;37.55;;;;;;;-3.34;75.89;97755.66;1755769;81;21718;-60
2021/01/30 10:05:53;;;;;;;47.13;27.42;;;;;;;-3.42;76.19;97753.33;1766293;81;21181;-63
2021/01/30 10:08:30;;;;;;;36.95;22.17;;;;;;;-3.36;76.17;97756.91;1756974;81;21165;-62
2021/01/30 10:11:07;;;;;;;;;;;;;;;-3.37;76.31;97751.31;1771804;81;21193;-61
2021/01/30 10:13:37;;;;;;;24.72;15.75;;;;;;;-3.40;76.35;97745.92;1770375;81;20164;-61
2021/01/30 10:16:08;;;;;;;26.27;16.62;;;;;;;-3.46;76.75;97750.02;1763040;80;21161;-62
2021/01/30 10:18:40;;;;;;;33.50;19.92;;;;;;;-3.47;76.90;97740.45;1718684;81;21164;-61
2021/01/30 10:21:10;;;;;;;50.35;33.20;;;;;;;-3.41;76.92;97734.20;1730181;83;21207;-62
2021/01/30 10:23:45;;;;;;;62.40;39.20;;;;;;;-3.32;77.02;97732.27;1730422;81;21530;-62
2021/01/30 10:26:25;;;;;;;38.13;24.00;;;;;;;-3.18;76.85;97735.50;1746716;81;21164;-60
2021/01/30 10:28:57;;;;;;;36.50;24.50;;;;;;;-3.08;76.68;97719.75;1763439;81;21506;-60
2021/01/30 10:31:32;;;;;;;35.78;23.70;;;;;;;-2.99;76.23;97717.04;1767081;81;21553;-60
2021/01/30 10:34:45;;;;;;;38.67;24.50;;;;;;;-3.00;76.15;97718.07;1741995;81;21173;-59
2021/01/30 10:37:21;;;;;;;30.57;20.17;;;;;;;-3.03;76.02;97706.56;1761031;81;21841;-60
2021/01/30 10:40:04;;;;;;;29.60;20.35;;;;;;;-3.03;76.32;97701.24;1763013;81;21602;-61
2021/01/30 10:42:34;;;;;;;25.40;16.60;;;;;;;-3.01;76.37;97703.95;1772366;81;21204;-60
2021/01/30 10:45:21;;;;;;;23.35;16.90;;;;;;;-2.97;76.38;97694.97;1770880;81;21751;-59
2021/01/30 10:47:52;;;;;;;26.42;16.80;;;;;;;-2.95;76.67;97696.89;1767683;81;21142;-60
2021/01/30 10:50:34;;;;;;;25.43;17.00;;;;;;;-2.89;76.60;97684.48;1710652;83;21524;-60
2021/01/30 10:53:35;;;;;;;27.37;18.05;;;;;;;-2.88;76.70;97678.13;1694798;84;21628;-59
2021/01/30 10:56:25;;;;;;;28.27;17.42;;;;;;;-2.82;76.73;97675.32;1672883;84;21211;-59
2021/01/30 10:58:54;;;;;;;30.02;18.35;;;;;;;-2.77;76.65;97674.10;1651317;84;21227;-59
2021/01/30 11:01:27;;;;;;;32.70;18.87;;;;;;;-2.66;76.51;97680.44;1695286;83;21166;-60
2021/01/30 11:03:59;;;;;;;34.58;21.85;;;;;;;-2.60;76.51;97667.49;1691841;84;21227;-61
2021/01/30 11:06:45;;;;;;;27.95;17.73;;;;;;;-2.56;76.28;97661.98;1691117;85;21158;-60
2021/01/30 11:09:27;;;;;;;21.82;15.13;;;;;;;-2.55;76.17;97660.94;1694828;84;21135;-60
2021/01/30 11:12:18;;;;;;;25.80;16.30;;;;;;;-2.52;76.11;97653.80;1678375;84;21777;-62
2021/01/30 11:14:46;;;;;;;24.07;16.12;;;;;;;-2.53;75.98;97645.52;1678105;85;21673;-60
2021/01/30 11:17:30;;;;;;;60.90;35.23;;;;;;;-2.54;76.12;97633.23;1683834;85;21962;-60
2021/01/30 11:19:58;;;;;;;25.15;15.78;;;;;;;-2.48;76.19;97624.83;1692091;83;21209;-61
2021/01/30 11:22:27;;;;;;;22.02;15.32;;;;;;;-2.43;76.11;97627.56;1664975;84;21230;-59
2021/01/30 11:25:09;;;;;;;34.90;23.30;;;;;;;-2.43;75.92;97614.23;1717342;83;21489;-59
2021/01/30 11:27:45;;;;;;;25.45;14.98;;;;;;;-2.41;75.80;97607.64;1713318;83;21846;-60
2021/01/30 11:30:27;;;;;;;22.17;14.63;;;;;;;-2.35;75.80;97611.19;1710342;83;21224;-59
2021/01/30 11:33:12;;;;;;;21.33;14.55;;;;;;;-2.42;75.69;97602.54;1714470;83;21139;-60
2021/01/30 11:35:43;;;;;;;21.23;12.98;;;;;;;-2.39;75.85;97601.53;1723018;83;21198;-61
2021/01/30 11:38:22;;;;;;;21.17;13.50;;;;;;;-2.41;75.86;97602.83;1679159;85;21160;-59
2021/01/30 11:40:51;;;;;;;21.80;13.80;;;;;;;-2.37;75.75;97593.31;1694633;84;21206;-62
2021/01/30 11:43:19;;;;;;;22.07;14.03;;;;;;;-2.39;75.86;97592.73;1673051;85;21634;-61
2021/01/30 11:45:47;;;;;;;24.50;15.40;;;;;;;-2.36;75.85;97590.91;1696111;83;21295;-59
2021/01/30 11:48:15;;;;;;;20.80;12.93;;;;;;;-2.29;75.94;97591.04;1686566;85;21339;-62
2021/01/30 11:50:43;;;;;;;20.40;13.13;;;;;;;-2.24;75.42;97587.66;1696646;83;21189;-61
2021/01/30 11:53:13;;;;;;;21.02;12.78;;;;;;;-2.30;75.12;97581.97;1660680;83;21176;-61
2021/01/30 11:55:41;;;;;;;21.48;13.83;;;;;;;-2.40;75.22;97577.78;1703829;83;21734;-63
2021/01/30 11:58:09;;;;;;;22.37;14.83;;;;;;;-2.43;75.35;97575.08;1674754;84;21190;-64
2021/01/30 12:00:36;;;;;;;22.55;15.13;;;;;;;-2.46;75.61;97568.91;1743504;82;21133;-62
2021/01/30 12:03:05;;;;;;;21.70;14.85;;;;;;;-2.51;75.77;97567.48;1748760;81;21475;-62
2021/01/30 12:05:33;;;;;;;23.20;14.75;;;;;;;-2.50;75.77;97562.44;1748604;81;21235;-60
2021/01/30 12:08:00;;;;;;;21.50;14.80;;;;;;;-2.48;75.67;97559.55;1751532;81;21606;-60
2021/01/30 12:10:27;;;;;;;25.00;15.93;;;;;;;-2.47;75.41;97555.81;1743149;81;21119;-61